NJE630D EDDG-LIRP
Flight info
| Callsign | NJE630D |
|---|---|
| Flight time | 1h 20m |
| Altitude | 35000 |
| Route | DOMEG Z841 GMH DCT TAU DCT KRH DCT ZUE DCT SRN DCT MIVKI |
| Aircraft | CL60/M-SBDE1E2E3FGHIJ1J4J5J7M3RWXYZ/LB1V1D1 |
Departure
| Time | 2026-04-30 08:05 |
|---|---|
| Airport | Münster Osnabrück Airport (EDDG) |
Arrival
| Time | 2026-04-30 09:26 |
|---|---|
| Airport | Pisa International Airport (LIRP) |
| Time | Latitude | Longitude | Altitude | Speed | Heading |
|---|---|---|---|---|---|
| 2026-04-30 07:38 | 52.13175 | 7.68814 | 165 ft | 0 kts | 161° |
| 2026-04-30 08:01 | 52.13165 | 7.68819 | 165 ft | 4 kts | 162° |
| 2026-04-30 08:01 | 52.13132 | 7.68868 | 166 ft | 8 kts | 80° |
| 2026-04-30 08:01 | 52.13175 | 7.68942 | 166 ft | 11 kts | 348° |
| 2026-04-30 08:01 | 52.13265 | 7.68896 | 165 ft | 15 kts | 342° |
| 2026-04-30 08:02 | 52.13338 | 7.68722 | 165 ft | 14 kts | 250° |
| 2026-04-30 08:02 | 52.13302 | 7.68549 | 165 ft | 18 kts | 251° |
| 2026-04-30 08:03 | 52.13206 | 7.68094 | 164 ft | 24 kts | 251° |
| 2026-04-30 08:03 | 52.13090 | 7.67545 | 163 ft | 20 kts | 252° |
| 2026-04-30 08:03 | 52.13043 | 7.67326 | 162 ft | 16 kts | 251° |
| 2026-04-30 08:04 | 52.13029 | 7.67173 | 162 ft | 14 kts | 285° |
| 2026-04-30 08:04 | 52.13088 | 7.67058 | 162 ft | 10 kts | 336° |
| 2026-04-30 08:04 | 52.13147 | 7.67031 | 162 ft | 6 kts | 11° |
| 2026-04-30 08:04 | 52.13172 | 7.67108 | 162 ft | 9 kts | 72° |
| 2026-04-30 08:05 | 52.13238 | 7.67421 | 163 ft | 72 kts | 71° |
| 2026-04-30 08:05 | 52.13524 | 7.68741 | 228 ft | 164 kts | 71° |
| 2026-04-30 08:05 | 52.13963 | 7.70587 | 1085 ft | 191 kts | 70° |
| 2026-04-30 08:05 | 52.14427 | 7.72656 | 1878 ft | 196 kts | 75° |
| 2026-04-30 08:06 | 52.14851 | 7.74691 | 2701 ft | 191 kts | 76° |
| 2026-04-30 08:06 | 52.15265 | 7.76690 | 3583 ft | 189 kts | 75° |
| 2026-04-30 08:06 | 52.15671 | 7.78683 | 4455 ft | 188 kts | 78° |
| 2026-04-30 08:06 | 52.15705 | 7.80801 | 5327 ft | 203 kts | 103° |
| 2026-04-30 08:07 | 52.14948 | 7.82844 | 6208 ft | 234 kts | 136° |
| 2026-04-30 08:07 | 52.13403 | 7.84063 | 7109 ft | 263 kts | 155° |
| 2026-04-30 08:07 | 52.11650 | 7.84988 | 7990 ft | 269 kts | 157° |
| 2026-04-30 08:07 | 52.09775 | 7.85441 | 8871 ft | 283 kts | 175° |
| 2026-04-30 08:08 | 52.07815 | 7.84737 | 9752 ft | 301 kts | 197° |
| 2026-04-30 08:08 | 52.05882 | 7.83372 | 10622 ft | 307 kts | 199° |
| 2026-04-30 08:08 | 52.03879 | 7.81949 | 11388 ft | 332 kts | 199° |
| 2026-04-30 08:08 | 52.01664 | 7.80388 | 12054 ft | 362 kts | 200° |
| 2026-04-30 08:09 | 51.99318 | 7.78726 | 13057 ft | 377 kts | 200° |
| 2026-04-30 08:09 | 51.96906 | 7.77017 | 14148 ft | 386 kts | 200° |
| 2026-04-30 08:09 | 51.94440 | 7.75270 | 15287 ft | 393 kts | 200° |
| 2026-04-30 08:09 | 51.91935 | 7.73498 | 16370 ft | 399 kts | 200° |
| 2026-04-30 08:10 | 51.89373 | 7.71688 | 17406 ft | 405 kts | 201° |
| 2026-04-30 08:10 | 51.86781 | 7.69860 | 18405 ft | 411 kts | 201° |
| 2026-04-30 08:10 | 51.84152 | 7.68009 | 19362 ft | 416 kts | 201° |
| 2026-04-30 08:10 | 51.81490 | 7.66136 | 20278 ft | 421 kts | 201° |
| 2026-04-30 08:11 | 51.78796 | 7.64245 | 21111 ft | 428 kts | 201° |
| 2026-04-30 08:11 | 51.76064 | 7.62329 | 21969 ft | 432 kts | 201° |
| 2026-04-30 08:11 | 51.73254 | 7.60647 | 22781 ft | 434 kts | 192° |
| 2026-04-30 08:11 | 51.70280 | 7.60088 | 23542 ft | 433 kts | 176° |
| 2026-04-30 08:12 | 51.67321 | 7.60826 | 24271 ft | 432 kts | 160° |
| 2026-04-30 08:12 | 51.64485 | 7.62397 | 24987 ft | 435 kts | 156° |
| 2026-04-30 08:12 | 51.61632 | 7.64039 | 25741 ft | 439 kts | 157° |
| 2026-04-30 08:12 | 51.58748 | 7.65687 | 26462 ft | 444 kts | 157° |
| 2026-04-30 08:13 | 51.55837 | 7.67349 | 27095 ft | 449 kts | 157° |
| 2026-04-30 08:13 | 51.52893 | 7.69026 | 27698 ft | 453 kts | 157° |
| 2026-04-30 08:13 | 51.49909 | 7.70723 | 28292 ft | 457 kts | 157° |
| 2026-04-30 08:13 | 51.46907 | 7.72427 | 28848 ft | 461 kts | 157° |
| 2026-04-30 08:14 | 51.43883 | 7.74141 | 29385 ft | 465 kts | 157° |
| 2026-04-30 08:14 | 51.40824 | 7.75871 | 29887 ft | 468 kts | 157° |
| 2026-04-30 08:14 | 51.37758 | 7.77602 | 30457 ft | 469 kts | 157° |
| 2026-04-30 08:14 | 51.34689 | 7.79333 | 31093 ft | 468 kts | 156° |
| 2026-04-30 08:15 | 51.31640 | 7.81050 | 31796 ft | 464 kts | 156° |
| 2026-04-30 08:15 | 51.28623 | 7.82745 | 32523 ft | 460 kts | 156° |
| 2026-04-30 08:15 | 51.25628 | 7.84426 | 33191 ft | 456 kts | 156° |
| 2026-04-30 08:15 | 51.22645 | 7.86099 | 33810 ft | 454 kts | 156° |
| 2026-04-30 08:16 | 51.19671 | 7.87764 | 34375 ft | 452 kts | 156° |
| 2026-04-30 08:16 | 51.16653 | 7.89313 | 34908 ft | 454 kts | 161° |
| 2026-04-30 08:16 | 51.13477 | 7.90352 | 35284 ft | 457 kts | 165° |
| 2026-04-30 08:17 | 51.07008 | 7.92275 | 35378 ft | 471 kts | 165° |
| 2026-04-30 08:17 | 51.00459 | 7.94218 | 35380 ft | 473 kts | 165° |
| 2026-04-30 08:18 | 50.93973 | 7.96138 | 35385 ft | 470 kts | 165° |
| 2026-04-30 08:18 | 50.87548 | 7.98037 | 35379 ft | 470 kts | 165° |
| 2026-04-30 08:19 | 50.81131 | 7.99930 | 35393 ft | 470 kts | 165° |
| 2026-04-30 08:19 | 50.74716 | 8.01818 | 35388 ft | 471 kts | 164° |
| 2026-04-30 08:20 | 50.68269 | 8.03712 | 35392 ft | 471 kts | 164° |
| 2026-04-30 08:20 | 50.61834 | 8.05596 | 35394 ft | 471 kts | 164° |
| 2026-04-30 08:21 | 50.55382 | 8.07481 | 35387 ft | 471 kts | 164° |
| 2026-04-30 08:21 | 50.48954 | 8.09354 | 35388 ft | 471 kts | 165° |
| 2026-04-30 08:22 | 50.42483 | 8.11235 | 35382 ft | 472 kts | 164° |
| 2026-04-30 08:22 | 50.35994 | 8.13115 | 35380 ft | 471 kts | 164° |
| 2026-04-30 08:23 | 50.29564 | 8.14974 | 35385 ft | 471 kts | 164° |
| 2026-04-30 08:23 | 50.23127 | 8.16923 | 35392 ft | 471 kts | 162° |
| 2026-04-30 08:24 | 50.16673 | 8.19146 | 35395 ft | 471 kts | 162° |
| 2026-04-30 08:24 | 50.10259 | 8.21346 | 35401 ft | 471 kts | 162° |
| 2026-04-30 08:25 | 50.03876 | 8.23529 | 35403 ft | 470 kts | 162° |
| 2026-04-30 08:25 | 49.97477 | 8.25711 | 35403 ft | 471 kts | 162° |
| 2026-04-30 08:26 | 49.91064 | 8.27892 | 35396 ft | 471 kts | 162° |
| 2026-04-30 08:26 | 49.84644 | 8.30068 | 35392 ft | 471 kts | 162° |
| 2026-04-30 08:27 | 49.78205 | 8.32246 | 35382 ft | 471 kts | 162° |
| 2026-04-30 08:27 | 49.71789 | 8.34409 | 35380 ft | 471 kts | 162° |
| 2026-04-30 08:28 | 49.65399 | 8.36558 | 35379 ft | 471 kts | 162° |
| 2026-04-30 08:28 | 49.58964 | 8.38716 | 35371 ft | 472 kts | 162° |
| 2026-04-30 08:29 | 49.52560 | 8.40858 | 35375 ft | 472 kts | 162° |
| 2026-04-30 08:29 | 49.46127 | 8.43003 | 35368 ft | 472 kts | 162° |
| 2026-04-30 08:30 | 49.39718 | 8.45134 | 35368 ft | 471 kts | 162° |
| 2026-04-30 08:30 | 49.33275 | 8.47272 | 35360 ft | 471 kts | 162° |
| 2026-04-30 08:31 | 49.26889 | 8.49385 | 35354 ft | 471 kts | 162° |
| 2026-04-30 08:31 | 49.20488 | 8.51498 | 35353 ft | 472 kts | 162° |
| 2026-04-30 08:32 | 49.14073 | 8.53609 | 35340 ft | 472 kts | 162° |
| 2026-04-30 08:32 | 49.07672 | 8.55710 | 35336 ft | 471 kts | 162° |
| 2026-04-30 08:33 | 49.01273 | 8.57805 | 35331 ft | 472 kts | 162° |
| 2026-04-30 08:33 | 48.94763 | 8.59288 | 35320 ft | 476 kts | 168° |
| 2026-04-30 08:34 | 48.88171 | 8.60395 | 35309 ft | 477 kts | 168° |
| 2026-04-30 08:34 | 48.81548 | 8.61512 | 35299 ft | 477 kts | 168° |
| 2026-04-30 08:35 | 48.74967 | 8.62621 | 35274 ft | 477 kts | 168° |
| 2026-04-30 08:35 | 48.68369 | 8.63734 | 35275 ft | 478 kts | 168° |
| 2026-04-30 08:36 | 48.61728 | 8.64851 | 35279 ft | 478 kts | 168° |
| 2026-04-30 08:36 | 48.55091 | 8.65967 | 35274 ft | 478 kts | 169° |
| 2026-04-30 08:37 | 48.48493 | 8.67074 | 35277 ft | 478 kts | 169° |
| 2026-04-30 08:37 | 48.41849 | 8.68186 | 35268 ft | 479 kts | 169° |
| 2026-04-30 08:38 | 48.35237 | 8.69291 | 35270 ft | 479 kts | 169° |
| 2026-04-30 08:38 | 48.28580 | 8.70400 | 35260 ft | 479 kts | 169° |
| 2026-04-30 08:39 | 48.21962 | 8.71501 | 35255 ft | 479 kts | 169° |
| 2026-04-30 08:39 | 48.15353 | 8.72597 | 35247 ft | 479 kts | 169° |
| 2026-04-30 08:40 | 48.08738 | 8.73692 | 35237 ft | 479 kts | 169° |
| 2026-04-30 08:40 | 48.02071 | 8.74793 | 35229 ft | 480 kts | 169° |
| 2026-04-30 08:41 | 47.95423 | 8.75887 | 35235 ft | 480 kts | 170° |
| 2026-04-30 08:41 | 47.88788 | 8.76977 | 35233 ft | 480 kts | 170° |
| 2026-04-30 08:42 | 47.82122 | 8.78069 | 35243 ft | 481 kts | 170° |
| 2026-04-30 08:42 | 47.75484 | 8.79154 | 35240 ft | 481 kts | 170° |
| 2026-04-30 08:43 | 47.68789 | 8.80245 | 35239 ft | 481 kts | 170° |
| 2026-04-30 08:43 | 47.62120 | 8.81330 | 35232 ft | 482 kts | 170° |
| 2026-04-30 08:44 | 47.55436 | 8.82220 | 35231 ft | 483 kts | 172° |
| 2026-04-30 08:44 | 47.48700 | 8.82947 | 35221 ft | 483 kts | 173° |
| 2026-04-30 08:45 | 47.41970 | 8.83673 | 35207 ft | 484 kts | 173° |
| 2026-04-30 08:45 | 47.35243 | 8.84398 | 35207 ft | 484 kts | 173° |
| 2026-04-30 08:46 | 47.28525 | 8.85120 | 35196 ft | 484 kts | 173° |
| 2026-04-30 08:46 | 47.21811 | 8.85839 | 35201 ft | 484 kts | 173° |
| 2026-04-30 08:47 | 47.15088 | 8.86559 | 35203 ft | 484 kts | 173° |
| 2026-04-30 08:47 | 47.08379 | 8.87275 | 35205 ft | 485 kts | 173° |
| 2026-04-30 08:48 | 47.01659 | 8.87990 | 35169 ft | 485 kts | 173° |
| 2026-04-30 08:48 | 46.94893 | 8.88709 | 35181 ft | 485 kts | 173° |
| 2026-04-30 08:49 | 46.88147 | 8.89422 | 35178 ft | 485 kts | 173° |
| 2026-04-30 08:49 | 46.81417 | 8.90134 | 35210 ft | 484 kts | 174° |
| 2026-04-30 08:50 | 46.74704 | 8.90842 | 35219 ft | 484 kts | 174° |
| 2026-04-30 08:50 | 46.67985 | 8.91549 | 35217 ft | 485 kts | 174° |
| 2026-04-30 08:51 | 46.61224 | 8.92258 | 35219 ft | 486 kts | 174° |
| 2026-04-30 08:51 | 46.54453 | 8.92967 | 35215 ft | 487 kts | 174° |
| 2026-04-30 08:52 | 46.47694 | 8.93672 | 35220 ft | 486 kts | 174° |
| 2026-04-30 08:52 | 46.40934 | 8.94376 | 35248 ft | 486 kts | 175° |
| 2026-04-30 08:53 | 46.34198 | 8.95076 | 35247 ft | 485 kts | 175° |
| 2026-04-30 08:53 | 46.27449 | 8.95775 | 35246 ft | 485 kts | 175° |
| 2026-04-30 08:54 | 46.20727 | 8.96470 | 35261 ft | 485 kts | 175° |
| 2026-04-30 08:54 | 46.14007 | 8.97163 | 35283 ft | 484 kts | 175° |
| 2026-04-30 08:55 | 46.07244 | 8.97859 | 35273 ft | 484 kts | 175° |
| 2026-04-30 08:55 | 46.00482 | 8.98553 | 35291 ft | 484 kts | 175° |
| 2026-04-30 08:56 | 45.93769 | 8.99240 | 35292 ft | 484 kts | 176° |
| 2026-04-30 08:56 | 45.87038 | 8.99928 | 35276 ft | 484 kts | 176° |
| 2026-04-30 08:57 | 45.80243 | 9.00620 | 35277 ft | 485 kts | 176° |
| 2026-04-30 08:57 | 45.73523 | 9.01303 | 35280 ft | 486 kts | 176° |
| 2026-04-30 08:58 | 45.66817 | 9.02354 | 35275 ft | 486 kts | 168° |
| 2026-04-30 08:58 | 45.60390 | 9.05417 | 35275 ft | 487 kts | 154° |
| 2026-04-30 08:59 | 45.54334 | 9.09947 | 35272 ft | 488 kts | 151° |
| 2026-04-30 08:59 | 45.48302 | 9.14513 | 35268 ft | 490 kts | 151° |
| 2026-04-30 09:00 | 45.42277 | 9.19061 | 35271 ft | 491 kts | 152° |
| 2026-04-30 09:00 | 45.36180 | 9.23648 | 35270 ft | 491 kts | 152° |
| 2026-04-30 09:01 | 45.30115 | 9.28198 | 35268 ft | 492 kts | 152° |
| 2026-04-30 09:01 | 45.24023 | 9.32756 | 35264 ft | 493 kts | 152° |
| 2026-04-30 09:02 | 45.14930 | 9.39536 | 35263 ft | 494 kts | 152° |
| 2026-04-30 09:02 | 45.08814 | 9.44082 | 35255 ft | 495 kts | 153° |
| 2026-04-30 09:03 | 45.02731 | 9.48593 | 35242 ft | 495 kts | 153° |
| 2026-04-30 09:03 | 44.96641 | 9.53097 | 35244 ft | 495 kts | 153° |
| 2026-04-30 09:04 | 44.90520 | 9.57613 | 34853 ft | 494 kts | 153° |
| 2026-04-30 09:04 | 44.87481 | 9.59851 | 34352 ft | 490 kts | 153° |
| 2026-04-30 09:04 | 44.84460 | 9.62073 | 33775 ft | 487 kts | 153° |
| 2026-04-30 09:05 | 44.81470 | 9.64269 | 33256 ft | 487 kts | 154° |
| 2026-04-30 09:05 | 44.78463 | 9.66475 | 32721 ft | 487 kts | 154° |
| 2026-04-30 09:05 | 44.75456 | 9.68679 | 32178 ft | 488 kts | 154° |
| 2026-04-30 09:05 | 44.72450 | 9.70879 | 31634 ft | 488 kts | 154° |
| 2026-04-30 09:06 | 44.69441 | 9.73079 | 31050 ft | 489 kts | 155° |
| 2026-04-30 09:06 | 44.66424 | 9.75281 | 30517 ft | 491 kts | 154° |
| 2026-04-30 09:06 | 44.63400 | 9.77487 | 29886 ft | 492 kts | 155° |
| 2026-04-30 09:06 | 44.60368 | 9.79695 | 29260 ft | 493 kts | 154° |
| 2026-04-30 09:07 | 44.57338 | 9.81900 | 28636 ft | 490 kts | 154° |
| 2026-04-30 09:07 | 44.54330 | 9.84087 | 28009 ft | 485 kts | 154° |
| 2026-04-30 09:07 | 44.51358 | 9.86245 | 27383 ft | 479 kts | 154° |
| 2026-04-30 09:07 | 44.48419 | 9.88376 | 26754 ft | 475 kts | 154° |
| 2026-04-30 09:08 | 44.45507 | 9.90485 | 26136 ft | 470 kts | 154° |
| 2026-04-30 09:08 | 44.42624 | 9.92571 | 25506 ft | 466 kts | 153° |
| 2026-04-30 09:08 | 44.39763 | 9.94638 | 24891 ft | 461 kts | 153° |
| 2026-04-30 09:08 | 44.36938 | 9.96678 | 24252 ft | 456 kts | 153° |
| 2026-04-30 09:09 | 44.34141 | 9.98694 | 23620 ft | 451 kts | 153° |
| 2026-04-30 09:09 | 44.31375 | 10.00686 | 23000 ft | 446 kts | 153° |
| 2026-04-30 09:09 | 44.28640 | 10.02653 | 22377 ft | 441 kts | 153° |
| 2026-04-30 09:09 | 44.25935 | 10.04597 | 21743 ft | 436 kts | 153° |
| 2026-04-30 09:10 | 44.23255 | 10.06504 | 21127 ft | 431 kts | 155° |
| 2026-04-30 09:10 | 44.20448 | 10.07848 | 20510 ft | 426 kts | 166° |
| 2026-04-30 09:10 | 44.17596 | 10.08854 | 19877 ft | 421 kts | 166° |
| 2026-04-30 09:10 | 44.14774 | 10.09858 | 19251 ft | 418 kts | 166° |
| 2026-04-30 09:11 | 44.11982 | 10.10852 | 18628 ft | 414 kts | 166° |
| 2026-04-30 09:11 | 44.09210 | 10.11838 | 18010 ft | 410 kts | 166° |
| 2026-04-30 09:11 | 44.06470 | 10.12812 | 17384 ft | 406 kts | 166° |
| 2026-04-30 09:11 | 44.03759 | 10.13799 | 16758 ft | 403 kts | 166° |
| 2026-04-30 09:12 | 44.01072 | 10.14787 | 16131 ft | 399 kts | 166° |
| 2026-04-30 09:12 | 43.98410 | 10.15764 | 15501 ft | 395 kts | 166° |
| 2026-04-30 09:12 | 43.95752 | 10.16598 | 14882 ft | 389 kts | 175° |
| 2026-04-30 09:12 | 43.93087 | 10.16541 | 14259 ft | 383 kts | 186° |
| 2026-04-30 09:13 | 43.90454 | 10.16252 | 13632 ft | 379 kts | 186° |
| 2026-04-30 09:13 | 43.87867 | 10.15954 | 13051 ft | 369 kts | 186° |
| 2026-04-30 09:13 | 43.85368 | 10.15649 | 12758 ft | 352 kts | 186° |
| 2026-04-30 09:13 | 43.82986 | 10.15348 | 12532 ft | 336 kts | 186° |
| 2026-04-30 09:14 | 43.80699 | 10.15056 | 12298 ft | 323 kts | 186° |
| 2026-04-30 09:14 | 43.78500 | 10.14769 | 12058 ft | 313 kts | 186° |
| 2026-04-30 09:14 | 43.76342 | 10.14480 | 11623 ft | 312 kts | 186° |
| 2026-04-30 09:14 | 43.74185 | 10.14176 | 11120 ft | 313 kts | 186° |
| 2026-04-30 09:15 | 43.72031 | 10.13858 | 10625 ft | 311 kts | 186° |
| 2026-04-30 09:15 | 43.69895 | 10.13527 | 10212 ft | 307 kts | 186° |
| 2026-04-30 09:15 | 43.67793 | 10.13188 | 9820 ft | 302 kts | 186° |
| 2026-04-30 09:15 | 43.65719 | 10.12838 | 9425 ft | 298 kts | 186° |
| 2026-04-30 09:16 | 43.63674 | 10.12480 | 9030 ft | 296 kts | 186° |
| 2026-04-30 09:16 | 43.61642 | 10.12113 | 8606 ft | 295 kts | 186° |
| 2026-04-30 09:16 | 43.59610 | 10.11735 | 8113 ft | 295 kts | 186° |
| 2026-04-30 09:16 | 43.57590 | 10.11358 | 7654 ft | 292 kts | 186° |
| 2026-04-30 09:17 | 43.55591 | 10.10976 | 7210 ft | 289 kts | 186° |
| 2026-04-30 09:17 | 43.53612 | 10.10595 | 6758 ft | 286 kts | 186° |
| 2026-04-30 09:17 | 43.51653 | 10.10212 | 6306 ft | 283 kts | 186° |
| 2026-04-30 09:17 | 43.49718 | 10.09827 | 5858 ft | 280 kts | 186° |
| 2026-04-30 09:18 | 43.47802 | 10.09603 | 5413 ft | 274 kts | 172° |
| 2026-04-30 09:18 | 43.46071 | 10.10474 | 4977 ft | 263 kts | 141° |
| 2026-04-30 09:18 | 43.44984 | 10.12391 | 4577 ft | 253 kts | 108° |
| 2026-04-30 09:18 | 43.44900 | 10.14725 | 4250 ft | 247 kts | 72° |
| 2026-04-30 09:19 | 43.45860 | 10.16617 | 3932 ft | 244 kts | 38° |
| 2026-04-30 09:19 | 43.47267 | 10.17869 | 3626 ft | 238 kts | 33° |
| 2026-04-30 09:19 | 43.48607 | 10.19124 | 3379 ft | 229 kts | 37° |
| 2026-04-30 09:19 | 43.49865 | 10.20404 | 3146 ft | 221 kts | 38° |
| 2026-04-30 09:20 | 43.51087 | 10.21655 | 2906 ft | 216 kts | 38° |
| 2026-04-30 09:20 | 43.52256 | 10.22850 | 2678 ft | 201 kts | 38° |
| 2026-04-30 09:20 | 43.53330 | 10.23949 | 2506 ft | 182 kts | 38° |
| 2026-04-30 09:20 | 43.54310 | 10.24953 | 2510 ft | 174 kts | 38° |
| 2026-04-30 09:21 | 43.55281 | 10.25951 | 2502 ft | 173 kts | 38° |
| 2026-04-30 09:21 | 43.56239 | 10.26935 | 2513 ft | 168 kts | 38° |
| 2026-04-30 09:21 | 43.57149 | 10.27867 | 2448 ft | 160 kts | 38° |
| 2026-04-30 09:21 | 43.58029 | 10.28771 | 2243 ft | 155 kts | 38° |
| 2026-04-30 09:22 | 43.58879 | 10.29644 | 2045 ft | 149 kts | 38° |
| 2026-04-30 09:22 | 43.59698 | 10.30487 | 1852 ft | 143 kts | 38° |
| 2026-04-30 09:22 | 43.60436 | 10.31243 | 1710 ft | 126 kts | 38° |
| 2026-04-30 09:22 | 43.61119 | 10.31943 | 1524 ft | 119 kts | 38° |
| 2026-04-30 09:23 | 43.61775 | 10.32619 | 1372 ft | 118 kts | 38° |
| 2026-04-30 09:23 | 43.62433 | 10.33291 | 1209 ft | 118 kts | 38° |
| 2026-04-30 09:23 | 43.63098 | 10.33934 | 1036 ft | 115 kts | 36° |
| 2026-04-30 09:23 | 43.63743 | 10.34577 | 899 ft | 114 kts | 39° |
| 2026-04-30 09:24 | 43.64402 | 10.35238 | 799 ft | 119 kts | 38° |
| 2026-04-30 09:24 | 43.65060 | 10.35905 | 634 ft | 115 kts | 40° |
| 2026-04-30 09:24 | 43.65687 | 10.36594 | 463 ft | 116 kts | 39° |
| 2026-04-30 09:24 | 43.66339 | 10.37285 | 327 ft | 118 kts | 41° |
| 2026-04-30 09:25 | 43.66978 | 10.37977 | 158 ft | 115 kts | 40° |
| 2026-04-30 09:25 | 43.67617 | 10.38639 | 27 ft | 109 kts | 39° |
| 2026-04-30 09:25 | 43.68126 | 10.39167 | 13 ft | 64 kts | 38° |
| 2026-04-30 09:25 | 43.68460 | 10.39512 | 15 ft | 57 kts | 37° |
| 2026-04-30 09:26 | 43.68759 | 10.39819 | 16 ft | 50 kts | 36° |
| 2026-04-30 09:26 | 43.69027 | 10.40099 | 17 ft | 46 kts | 38° |
| 2026-04-30 09:26 | 43.69226 | 10.40306 | 18 ft | 6 kts | 37° |
| 2026-04-30 09:26 | 43.69279 | 10.40296 | 18 ft | 10 kts | 310° |
| 2026-04-30 09:27 | 43.69331 | 10.40199 | 19 ft | 11 kts | 306° |
| 2026-04-30 09:27 | 43.69383 | 10.40110 | 19 ft | 12 kts | 326° |
| 2026-04-30 09:27 | 43.69480 | 10.40086 | 19 ft | 14 kts | 353° |
| 2026-04-30 09:27 | 43.69547 | 10.40074 | 19 ft | 8 kts | 352° |
| 2026-04-30 09:28 | 43.69618 | 10.40060 | 20 ft | 12 kts | 351° |
| 2026-04-30 09:28 | 43.69666 | 10.40048 | 20 ft | 6 kts | 336° |
| 2026-04-30 09:28 | 43.69687 | 10.39975 | 20 ft | 8 kts | 265° |
| 2026-04-30 09:28 | 43.69625 | 10.39937 | 20 ft | 12 kts | 188° |
| 2026-04-30 09:29 | 43.69544 | 10.39918 | 20 ft | 7 kts | 189° |
| 2026-04-30 09:29 | 43.69520 | 10.39950 | 19 ft | 5 kts | 95° |
| 2026-04-30 09:29 | 43.69519 | 10.39964 | 19 ft | 0 kts | 96° |